Time;durP1;ratioP1;P1;durP2;ratioP2;P2;SDS_P1;SDS_P2;PMS_P1;PMS_P2;Temp;Humidity;BMP_temperature;BMP_pressure;BME280_temperature;BME280_humidity;BME280_pressure;Samples;Min_cycle;Max_cycle;Signal;HPM_P1;HPM_P2
2021/08/15 00:03:53;;;;;;;28.62;10.93;;;;;;;20.27;65.54;101195.36;1809908;77;21462;-60
2021/08/15 00:09:04;;;;;;;22.03;10.07;;;;;;;20.15;65.98;101201.16;1795248;79;21719;-59
2021/08/15 00:17:04;;;;;;;33.08;10.85;;;;;;;20.10;66.59;101197.89;1799217;78;22325;-60
2021/08/15 00:19:33;;;;;;;24.60;9.98;;;;;;;20.08;67.07;101197.13;1810859;78;21056;-60
2021/08/15 00:21:59;;;;;;;19.07;10.85;;;;;;;20.02;67.72;101191.14;1805265;78;21048;-60
2021/08/15 00:24:35;;;;;;;24.50;10.63;;;;;;;19.98;68.26;101192.30;1810649;78;21015;-61
2021/08/15 00:27:05;;;;;;;28.92;10.80;;;;;;;19.95;68.80;101187.06;1797687;78;21135;-61
2021/08/15 00:29:32;;;;;;;21.70;10.28;;;;;;;19.95;69.37;101189.78;1803750;78;21082;-61
2021/08/15 00:31:59;;;;;;;17.23;10.20;;;;;;;19.93;69.73;101194.46;1802976;78;21103;-61
2021/08/15 00:34:28;;;;;;;23.60;10.60;;;;;;;19.88;70.10;101188.44;1804461;78;21044;-60
2021/08/15 00:36:59;;;;;;;25.08;10.18;;;;;;;19.89;70.38;101184.73;1797940;78;21036;-60
2021/08/15 00:39:27;;;;;;;20.43;10.38;;;;;;;19.88;70.53;101184.36;1798787;79;21139;-60
2021/08/15 00:41:54;;;;;;;22.22;11.48;;;;;;;19.85;70.56;101186.78;1792517;79;21060;-60
2021/08/15 00:44:28;;;;;;;25.08;11.38;;;;;;;19.79;70.79;101187.20;1803311;79;21068;-60
2021/08/15 00:54:53;;;;;;;24.80;14.70;;;;;;;19.68;71.71;101192.00;1802973;79;21071;-60
2021/08/15 00:57:34;;;;;;;26.60;14.23;;;;;;;19.66;71.72;101193.95;1794367;79;21146;-60
2021/08/15 01:00:17;;;;;;;22.58;12.98;;;;;;;19.60;72.17;101188.43;1791448;79;21457;-60
2021/08/15 01:03:28;;;;;;;31.60;12.78;;;;;;;19.54;72.62;101179.80;1792204;79;21068;-60
2021/08/15 01:06:00;;;;;;;24.12;12.98;;;;;;;19.50;73.13;101183.70;1786046;79;21452;-60
2021/08/15 01:08:34;;;;;;;30.23;12.93;;;;;;;19.45;73.70;101183.52;1791841;79;21505;-60
2021/08/15 01:11:12;;;;;;;21.07;12.43;;;;;;;19.44;74.09;101185.86;1792334;79;20965;-60
2021/08/15 01:16:42;;;;;;;25.10;12.47;;;;;;;19.44;74.14;101182.25;1801168;79;21682;-60
2021/08/15 01:19:30;;;;;;;26.73;13.18;;;;;;;19.39;74.12;101178.50;1800700;79;21126;-63
2021/08/15 01:21:59;;;;;;;22.75;12.53;;;;;;;19.31;74.35;101177.64;1792058;79;21068;-61
2021/08/15 01:24:27;;;;;;;24.23;12.60;;;;;;;19.23;74.76;101169.59;1797333;79;21115;-61
2021/08/15 01:26:54;;;;;;;25.77;12.47;;;;;;;19.17;75.07;101170.39;1788825;79;21077;-63
2021/08/15 01:29:22;;;;;;;24.23;12.43;;;;;;;19.12;75.33;101171.65;1800413;79;21083;-61
2021/08/15 01:31:50;;;;;;;24.77;11.43;;;;;;;19.06;75.60;101166.62;1791208;79;21100;-61
2021/08/15 01:34:26;;;;;;;33.30;12.10;;;;;;;19.02;75.96;101164.58;1798436;79;21012;-61
2021/08/15 01:39:33;;;;;;;23.75;12.35;;;;;;;18.94;77.24;101164.17;1765383;80;21005;-63
2021/08/15 01:47:10;;;;;;;22.87;12.30;;;;;;;18.88;78.84;101159.48;1752387;81;21055;-60
2021/08/15 01:52:14;;;;;;;21.50;12.50;;;;;;;18.87;79.33;101165.04;1766751;80;21170;-62
2021/08/15 02:05:18;;;;;;;23.60;12.68;;;;;;;18.77;79.56;101155.24;1765845;80;21277;-61
2021/08/15 02:07:42;;;;;;;25.23;12.65;;;;;;;18.77;79.80;101160.67;1746608;81;22224;-62
2021/08/15 02:10:10;;;;;;;22.52;12.82;;;;;;;18.75;79.69;101155.83;1760368;81;21139;-61
2021/08/15 02:15:11;;;;;;;22.45;11.93;;;;;;;18.75;79.84;101167.55;1732843;82;21127;-61
2021/08/15 02:27:59;;;;;;;28.02;11.78;;;;;;;18.89;78.75;101158.52;1803566;78;21671;-63
2021/08/15 02:46:20;;;;;;;27.60;12.43;;;;;;;18.82;79.04;101153.09;1787650;79;20972;-62
2021/08/15 02:48:48;;;;;;;33.30;11.85;;;;;;;18.78;79.23;101158.34;1784262;79;21966;-62
2021/08/15 02:59:39;;;;;;;33.08;13.43;;;;;;;18.79;79.90;101160.56;1791572;79;20927;-62
2021/08/15 03:15:10;;;;;;;25.27;11.90;;;;;;;18.70;81.01;101164.76;1770294;79;21436;-62
2021/08/15 03:18:08;;;;;;;39.13;13.50;;;;;;;18.68;81.08;101162.13;1786001;79;21591;-62
2021/08/15 03:20:36;;;;;;;28.32;11.73;;;;;;;18.64;81.54;101163.77;1782091;79;21508;-62
2021/08/15 03:23:03;;;;;;;27.30;12.20;;;;;;;18.63;81.63;101168.34;1787150;79;21076;-61
2021/08/15 03:25:30;;;;;;;24.67;11.80;;;;;;;18.67;81.41;101169.00;1785555;79;21053;-61
2021/08/15 03:27:57;;;;;;;26.65;11.65;;;;;;;18.71;81.36;101174.66;1783511;79;21792;-61
2021/08/15 03:30:24;;;;;;;19.55;10.25;;;;;;;18.78;81.22;101171.92;1788144;79;21025;-62
2021/08/15 03:35:27;;;;;;;22.52;10.78;;;;;;;18.87;80.45;101176.77;1784768;79;21119;-61
2021/08/15 03:37:54;;;;;;;22.35;11.65;;;;;;;18.90;80.39;101173.88;1777142;79;21065;-61
2021/08/15 03:40:21;;;;;;;22.17;10.65;;;;;;;18.97;80.10;101173.48;1793703;78;21136;-63
2021/08/15 03:42:48;;;;;;;21.15;11.38;;;;;;;19.06;79.63;101176.13;1792351;77;21119;-61
2021/08/15 03:45:17;;;;;;;25.40;11.93;;;;;;;19.13;79.11;101174.28;1740113;81;21107;-61
2021/08/15 03:47:43;;;;;;;24.50;12.25;;;;;;;19.23;78.63;101173.67;1736324;81;21068;-61
2021/08/15 03:50:11;;;;;;;20.00;11.83;;;;;;;19.33;77.65;101174.80;1765366;79;21472;-61
2021/08/15 04:03:10;;;;;;;31.27;13.22;;;;;;;19.84;76.13;101182.32;1799252;77;21147;-61
2021/08/15 04:05:49;;;;;;;24.60;12.75;;;;;;;19.93;75.72;101180.86;1802280;77;21130;-62
2021/08/15 04:08:16;;;;;;;27.70;13.70;;;;;;;20.00;75.54;101180.81;1781579;78;21107;-61
2021/08/15 04:11:03;;;;;;;25.77;12.53;;;;;;;20.09;75.40;101173.02;1794583;77;20989;-61
2021/08/15 04:13:49;;;;;;;23.67;13.13;;;;;;;20.15;74.77;101172.11;1809111;77;21044;-61
2021/08/15 04:16:16;;;;;;;21.37;13.32;;;;;;;20.23;74.80;101176.14;1801689;77;21060;-61
2021/08/15 04:18:44;;;;;;;26.87;12.95;;;;;;;20.35;74.43;101177.14;1795640;77;20986;-61
2021/08/15 04:21:11;;;;;;;23.40;12.55;;;;;;;20.46;73.98;101178.12;1798685;77;21447;-61
2021/08/15 04:23:47;;;;;;;30.08;12.58;;;;;;;20.59;73.16;101180.86;1791462;79;21043;-61
2021/08/15 04:26:15;;;;;;;25.23;12.85;;;;;;;20.73;72.84;101185.83;1792542;77;21087;-61
2021/08/15 04:28:55;;;;;;;29.50;12.07;;;;;;;20.83;71.83;101182.84;1797154;77;21079;-61
2021/08/15 04:31:22;;;;;;;20.05;11.60;;;;;;;20.94;71.37;101186.66;1800488;77;21845;-62
2021/08/15 04:33:54;;;;;;;28.65;11.63;;;;;;;21.13;70.46;101184.34;1791108;77;21110;-62
2021/08/15 04:36:21;;;;;;;28.60;11.53;;;;;;;21.32;69.57;101192.03;1797915;77;21031;-62
2021/08/15 04:39:06;;;;;;;;;;;;;;;21.51;68.80;101192.03;1745523;80;21051;-62
2021/08/15 04:41:33;;;;;;;22.25;10.58;;;;;;;21.73;67.59;101187.73;1723992;80;20218;-62
2021/08/15 04:46:30;;;;;;;28.40;10.63;;;;;;;22.00;65.42;101184.77;1760795;81;21016;-63
2021/08/15 04:51:27;;;;;;;25.35;10.63;;;;;;;22.23;64.85;101183.47;1793009;79;21075;-64
2021/08/15 04:59:12;;;;;;;23.22;11.60;;;;;;;22.66;63.66;101193.37;1793338;79;21079;-63
2021/08/15 05:01:40;;;;;;;21.62;10.48;;;;;;;22.75;63.16;101198.12;1754509;81;21592;-62
2021/08/15 05:04:07;;;;;;;25.40;11.20;;;;;;;22.83;62.57;101195.64;1756220;81;21025;-63
2021/08/15 05:06:33;;;;;;;20.17;10.48;;;;;;;22.86;62.59;101192.66;1798978;79;21020;-62
2021/08/15 05:09:21;;;;;;;19.90;10.50;;;;;;;22.93;62.51;101197.14;1799135;79;21687;-61
2021/08/15 05:11:49;;;;;;;20.70;10.48;;;;;;;22.96;62.44;101197.41;1800490;79;21076;-62
2021/08/15 05:16:52;;;;;;;24.30;10.95;;;;;;;23.14;62.93;101205.48;1795269;79;21033;-62
2021/08/15 05:19:47;;;;;;;25.62;11.55;;;;;;;23.27;62.76;101202.64;1796624;79;21087;-62
2021/08/15 05:22:15;;;;;;;25.57;11.83;;;;;;;23.48;62.78;101202.35;1767649;79;21844;-64
2021/08/15 05:25:01;;;;;;;27.75;11.30;;;;;;;23.78;62.09;101211.23;1794514;79;21017;-64
2021/08/15 05:27:59;;;;;;;22.00;11.00;;;;;;;23.99;61.62;101205.83;1798765;79;21134;-62
2021/08/15 05:30:31;;;;;;;33.90;11.35;;;;;;;24.25;61.04;101200.49;1799755;79;21087;-62
2021/08/15 05:35:43;;;;;;;;;;;;;;;24.54;59.39;101200.70;1801486;79;21118;-63
2021/08/15 05:38:10;;;;;;;18.48;9.93;;;;;;;24.68;59.17;101202.74;1795794;79;20349;-63
2021/08/15 05:40:39;;;;;;;22.02;10.08;;;;;;;24.82;58.84;101196.92;1800061;78;21126;-64
2021/08/15 05:43:07;;;;;;;25.15;10.32;;;;;;;24.96;58.26;101201.69;1786741;78;21107;-64
2021/08/15 05:45:34;;;;;;;25.32;10.63;;;;;;;25.10;57.91;101204.55;1728506;80;21024;-63
2021/08/15 05:48:18;;;;;;;29.87;10.00;;;;;;;25.23;57.69;101201.57;1750816;79;21144;-63
2021/08/15 05:59:17;;;;;;;25.00;9.25;;;;;;;25.96;55.21;101201.30;1744717;79;21114;-64
2021/08/15 06:01:47;;;;;;;35.60;8.90;;;;;;;26.12;53.45;101202.61;1757748;79;21141;-64
2021/08/15 06:07:11;;;;;;;49.65;8.88;;;;;;;26.21;50.88;101196.29;1744317;80;21078;-64
2021/08/15 06:09:42;;;;;;;26.48;7.20;;;;;;;26.25;50.84;101192.72;1763396;80;21070;-63
2021/08/15 06:17:24;;;;;;;26.33;7.05;;;;;;;26.53;49.39;101192.31;1741280;79;21047;-65
2021/08/15 06:19:53;;;;;;;21.23;6.20;;;;;;;26.65;48.54;101196.29;1747267;81;21513;-65
2021/08/15 06:22:22;;;;;;;25.80;5.53;;;;;;;26.73;48.00;101203.27;1743484;81;21003;-65
2021/08/15 06:24:50;;;;;;;20.97;5.25;;;;;;;26.75;45.62;101206.73;1753005;79;21016;-64
2021/08/15 06:27:18;;;;;;;8.23;4.58;;;;;;;26.70;44.38;101204.95;1751941;80;22167;-64
2021/08/15 06:37:52;;;;;;;6.95;4.62;;;;;;;26.76;44.37;101197.47;1752784;80;21087;-62
2021/08/15 06:40:24;;;;;;;22.55;5.55;;;;;;;26.84;43.80;101192.07;1766184;79;20997;-62
2021/08/15 06:42:51;;;;;;;23.22;5.72;;;;;;;26.96;44.27;101187.80;1770904;79;21051;-62
2021/08/15 06:53:43;;;;;;;16.62;4.83;;;;;;;27.57;40.78;101192.38;1808502;78;21147;-62
2021/08/15 06:56:11;;;;;;;17.05;4.95;;;;;;;27.60;40.82;101190.68;1799837;78;21635;-63
2021/08/15 07:03:58;;;;;;;10.32;4.30;;;;;;;27.60;39.31;101194.81;1798094;78;21126;-63
2021/08/15 07:08:58;;;;;;;5.60;3.98;;;;;;;27.48;39.29;101188.63;1794022;78;21082;-61
2021/08/15 07:11:24;;;;;;;5.00;3.52;;;;;;;27.54;39.10;101192.69;1797767;78;21033;-62
2021/08/15 07:13:51;;;;;;;10.45;4.28;;;;;;;27.61;38.69;101195.17;1792064;78;21111;-61
2021/08/15 07:16:18;;;;;;;5.28;4.00;;;;;;;27.66;38.86;101190.58;1802764;78;21039;-61
2021/08/15 07:18:52;;;;;;;6.90;3.87;;;;;;;27.68;38.19;101186.63;1809851;78;21137;-62
2021/08/15 07:21:19;;;;;;;14.33;4.37;;;;;;;27.74;38.71;101186.52;1801598;78;21068;-62
2021/08/15 07:23:55;;;;;;;6.87;4.03;;;;;;;27.88;38.32;101189.23;1798146;78;21119;-63
2021/08/15 07:26:22;;;;;;;9.03;3.80;;;;;;;27.93;37.93;101184.11;1803005;79;21079;-63
2021/08/15 07:28:49;;;;;;;4.33;3.42;;;;;;;27.90;38.40;101189.09;1806850;78;21072;-63
2021/08/15 07:31:31;;;;;;;5.05;3.35;;;;;;;27.91;38.20;101184.78;1805147;78;21083;-63
2021/08/15 07:34:13;;;;;;;11.25;3.77;;;;;;;28.01;38.31;101184.20;1804148;78;21063;-62
2021/08/15 07:36:45;;;;;;;11.20;4.37;;;;;;;28.14;38.24;101178.78;1807504;78;21907;-62
2021/08/15 07:39:13;;;;;;;9.43;4.10;;;;;;;28.24;38.13;101172.72;1809175;78;21079;-62
2021/08/15 07:41:43;;;;;;;4.60;3.70;;;;;;;28.26;37.47;101177.55;1798635;78;21442;-63
2021/08/15 07:46:42;;;;;;;7.60;3.70;;;;;;;28.36;38.42;101180.71;1788396;79;21308;-62
2021/08/15 07:57:07;;;;;;;8.50;3.58;;;;;;;28.60;38.27;101168.47;1776147;79;22563;-63
2021/08/15 08:02:21;;;;;;;7.37;3.40;;;;;;;28.74;37.69;101166.14;1637704;85;21323;-63
2021/08/15 08:04:50;;;;;;;5.37;3.05;;;;;;;28.77;37.61;101169.95;1637687;86;21346;-62
2021/08/15 08:07:22;;;;;;;7.05;3.87;;;;;;;28.80;36.98;101166.89;1636913;86;21660;-62
2021/08/15 08:12:31;;;;;;;5.72;3.40;;;;;;;28.80;37.21;101169.66;1657276;84;21108;-62
2021/08/15 08:25:28;;;;;;;3.90;3.27;;;;;;;29.13;36.87;101161.55;1664659;84;21163;-61
2021/08/15 08:27:55;;;;;;;4.60;3.20;;;;;;;29.15;36.54;101160.86;1655049;84;21345;-61
2021/08/15 08:33:28;;;;;;;4.97;3.50;;;;;;;28.93;34.41;101154.55;1657372;86;21099;-62
2021/08/15 08:35:55;;;;;;;10.82;3.80;;;;;;;28.83;33.99;101161.05;1658719;84;21767;-62
2021/08/15 08:49:32;;;;;;;6.78;2.90;;;;;;;28.92;35.53;101148.69;1660556;84;21091;-61
2021/08/15 08:54:38;;;;;;;4.80;3.25;;;;;;;29.09;34.84;101139.95;1640161;86;21115;-62
2021/08/15 08:57:06;;;;;;;6.03;3.20;;;;;;;29.05;34.84;101145.46;1657883;84;21492;-61
2021/08/15 09:02:08;;;;;;;3.95;3.20;;;;;;;29.01;34.02;101151.31;1621232;86;21816;-62
2021/08/15 09:04:35;;;;;;;4.50;3.05;;;;;;;29.07;33.98;101136.49;1648035;85;21112;-61
2021/08/15 09:07:19;;;;;;;5.15;3.20;;;;;;;29.16;33.98;101150.16;1660137;85;22107;-62
2021/08/15 09:18:35;;;;;;;6.67;3.33;;;;;;;29.28;33.70;101130.52;1649810;86;21053;-61
2021/08/15 09:23:48;;;;;;;6.20;3.42;;;;;;;29.35;34.02;101132.97;1622820;86;21100;-61
2021/08/15 09:26:21;;;;;;;6.65;3.27;;;;;;;29.40;34.43;101125.03;1617865;86;21211;-61
2021/08/15 09:34:06;;;;;;;9.35;3.90;;;;;;;29.55;34.43;101119.73;1618639;86;21156;-61
2021/08/15 09:41:39;;;;;;;4.67;3.47;;;;;;;29.71;33.90;101106.45;1648030;85;21532;-61
2021/08/15 09:44:26;;;;;;;8.40;3.77;;;;;;;29.75;33.36;101114.42;1648089;85;21526;-62
2021/08/15 09:49:48;;;;;;;9.73;3.43;;;;;;;29.71;33.11;101107.83;1623188;85;21016;-60
2021/08/15 09:52:19;;;;;;;4.47;3.22;;;;;;;29.63;34.35;101099.55;1657936;85;21064;-60
2021/08/15 09:55:00;;;;;;;4.25;3.30;;;;;;;29.68;33.97;101101.27;1663977;84;21055;-60
2021/08/15 09:58:02;;;;;;;8.53;3.17;;;;;;;29.69;33.65;101096.62;1622579;87;21124;-62
2021/08/15 10:00:34;;;;;;;6.35;4.00;;;;;;;29.63;34.20;101092.64;1648073;85;21155;-62
2021/08/15 10:03:03;;;;;;;5.33;3.58;;;;;;;29.56;34.93;101101.28;1619928;86;21144;-62
2021/08/15 10:05:39;;;;;;;6.25;3.77;;;;;;;29.49;34.17;101100.22;1648245;85;21135;-62
2021/08/15 10:08:07;;;;;;;6.08;3.58;;;;;;;29.43;33.88;101098.48;1650682;85;21523;-61
2021/08/15 10:10:38;;;;;;;8.78;3.50;;;;;;;29.37;34.23;101099.14;1635690;86;21085;-61
2021/08/15 10:13:07;;;;;;;4.87;3.22;;;;;;;29.39;34.27;101091.55;1618471;86;21073;-62
2021/08/15 10:15:35;;;;;;;6.10;2.98;;;;;;;29.42;33.92;101090.39;1628525;86;21037;-61
2021/08/15 10:18:06;;;;;;;5.50;3.50;;;;;;;29.39;33.63;101082.39;1625755;86;21706;-61
2021/08/15 10:23:19;;;;;;;4.62;3.37;;;;;;;29.27;33.28;101090.13;1627958;86;21367;-61
2021/08/15 10:25:48;;;;;;;4.58;3.40;;;;;;;29.19;33.75;101085.98;1612399;87;21132;-61
2021/08/15 10:28:32;;;;;;;4.70;3.25;;;;;;;29.16;34.25;101087.17;1647280;85;21096;-61
2021/08/15 10:31:09;;;;;;;7.20;3.55;;;;;;;29.16;35.43;101085.30;1637184;85;21058;-61
2021/08/15 10:33:36;;;;;;;8.58;3.25;;;;;;;29.14;35.75;101083.22;1648081;85;21225;-61
2021/08/15 10:36:34;;;;;;;13.75;3.90;;;;;;;29.13;35.60;101076.47;1594498;87;21609;-61
2021/08/15 10:41:52;;;;;;;7.55;3.92;;;;;;;29.08;34.99;101064.58;1647805;85;21068;-61
2021/08/15 10:44:20;;;;;;;9.68;3.25;;;;;;;29.10;34.49;101061.63;1648098;85;21147;-62
2021/08/15 10:47:14;;;;;;;4.85;3.15;;;;;;;29.09;34.30;101059.91;1648413;85;21155;-62
2021/08/15 10:49:53;;;;;;;5.00;3.60;;;;;;;29.05;34.19;101056.61;1647297;85;21092;-61
2021/08/15 10:52:35;;;;;;;7.00;3.58;;;;;;;28.98;34.76;101060.58;1646136;86;21115;-61
2021/08/15 11:06:58;;;;;;;6.00;3.33;;;;;;;28.65;35.17;101060.95;1619726;85;21062;-62
2021/08/15 11:09:26;;;;;;;5.03;3.10;;;;;;;28.62;35.25;101052.98;1649275;85;21069;-61
2021/08/15 11:15:09;;;;;;;8.88;3.40;;;;;;;28.72;35.53;101050.97;1656990;86;21356;-61
2021/08/15 11:17:38;;;;;;;8.58;3.67;;;;;;;28.73;35.41;101054.07;1661101;84;21715;-60
2021/08/15 11:20:36;;;;;;;9.73;3.70;;;;;;;28.71;35.68;101045.10;1663450;84;21626;-62
2021/08/15 11:23:09;;;;;;;5.92;3.45;;;;;;;28.72;35.96;101046.83;1661310;84;21054;-61
2021/08/15 11:25:36;;;;;;;10.88;3.70;;;;;;;28.72;35.59;101037.17;1659570;86;21111;-61
2021/08/15 11:28:09;;;;;;;6.97;3.70;;;;;;;28.71;35.71;101040.97;1663700;84;21990;-61
2021/08/15 11:30:53;;;;;;;7.10;3.83;;;;;;;28.71;35.90;101034.06;1663092;84;21520;-61
2021/08/15 11:33:22;;;;;;;8.48;4.12;;;;;;;28.75;35.80;101036.84;1660684;84;25551;-62
2021/08/15 11:35:50;;;;;;;5.85;3.80;;;;;;;28.77;35.54;101040.29;1635786;85;21064;-61
2021/08/15 11:38:20;;;;;;;8.45;4.00;;;;;;;28.76;35.08;101038.56;1636650;85;21119;-61
2021/08/15 11:41:02;;;;;;;5.35;3.52;;;;;;;28.75;34.81;101035.45;1659579;85;21202;-62
2021/08/15 11:48:56;;;;;;;7.40;3.77;;;;;;;28.78;34.46;101029.60;1662485;86;21103;-62
2021/08/15 11:51:23;;;;;;;5.97;4.10;;;;;;;28.82;34.41;101036.54;1635932;86;21139;-62
2021/08/15 11:53:50;;;;;;;6.90;3.92;;;;;;;28.79;34.35;101021.70;1664731;84;21132;-63
2021/08/15 11:56:18;;;;;;;8.05;3.70;;;;;;;28.77;34.05;101025.12;1665791;84;21078;-61
2021/08/15 12:06:25;;;;;;;5.37;3.80;;;;;;;28.80;36.35;101015.16;1616068;88;21801;-60
2021/08/15 12:11:57;;;;;;;5.70;3.65;;;;;;;28.79;37.97;101002.89;1623027;86;21121;-60
2021/08/15 12:17:58;;;;;;;6.72;3.22;;;;;;;28.58;37.36;100996.77;1626510;86;21631;-61
2021/08/15 12:20:26;;;;;;;7.50;3.58;;;;;;;28.43;36.61;101002.59;1621612;87;21155;-62
2021/08/15 12:23:11;;;;;;;9.00;3.50;;;;;;;28.30;37.13;100997.02;1649087;85;21569;-62
2021/08/15 12:25:40;;;;;;;5.72;3.52;;;;;;;28.26;36.89;100994.23;1619667;86;21008;-61
2021/08/15 12:28:11;;;;;;;7.15;3.25;;;;;;;28.16;36.51;100989.34;1621403;86;21079;-61
2021/08/15 12:30:38;;;;;;;10.38;3.72;;;;;;;28.09;36.73;100990.51;1625876;87;21106;-61
2021/08/15 12:33:25;;;;;;;6.62;3.77;;;;;;;28.02;37.03;100984.78;1648767;86;22489;-60
2021/08/15 12:36:22;;;;;;;8.43;3.75;;;;;;;27.98;37.32;100977.88;1646164;85;21079;-61
2021/08/15 12:42:32;;;;;;;6.45;3.85;;;;;;;27.96;37.89;100983.19;1648014;85;21083;-61
2021/08/15 12:47:45;;;;;;;4.95;3.40;;;;;;;27.96;38.16;100979.90;1650341;85;21839;-61
2021/08/15 12:58:23;;;;;;;9.43;4.00;;;;;;;28.07;37.85;100971.87;1622962;87;21216;-61
2021/08/15 13:00:51;;;;;;;4.95;3.75;;;;;;;28.08;36.41;100978.26;1646459;85;21150;-61
2021/08/15 13:03:21;;;;;;;7.03;3.50;;;;;;;28.08;37.09;100969.98;1660247;84;21096;-64
2021/08/15 13:08:33;;;;;;;5.42;3.70;;;;;;;28.07;37.91;100969.64;1623330;86;21622;-61
2021/08/15 13:14:02;;;;;;;6.28;3.85;;;;;;;27.97;39.37;100964.25;1646153;85;21119;-62
2021/08/15 13:16:42;;;;;;;5.62;3.67;;;;;;;27.92;38.58;100956.47;1641791;85;21104;-62
2021/08/15 13:19:15;;;;;;;5.58;3.85;;;;;;;27.90;38.04;100961.27;1646607;85;21540;-62
2021/08/15 13:21:42;;;;;;;7.80;3.70;;;;;;;27.86;37.87;100962.63;1647456;85;21147;-61
2021/08/15 13:24:09;;;;;;;4.90;3.85;;;;;;;27.85;38.71;100959.53;1648401;85;21171;-62
2021/08/15 13:26:36;;;;;;;9.58;3.60;;;;;;;27.87;39.27;100957.47;1648407;85;21135;-64
2021/08/15 13:34:24;;;;;;;7.17;4.00;;;;;;;27.92;39.92;100948.73;1662661;85;21075;-61
2021/08/15 13:36:51;;;;;;;8.40;3.80;;;;;;;27.90;39.64;100941.99;1618762;86;21120;-61
2021/08/15 13:44:36;;;;;;;7.50;3.83;;;;;;;27.88;39.84;100944.92;1651191;85;21633;-61
2021/08/15 13:49:43;;;;;;;6.20;4.30;;;;;;;27.92;39.49;100937.17;1624575;86;21572;-60
2021/08/15 13:54:54;;;;;;;7.87;4.15;;;;;;;27.93;39.03;100929.26;1650791;85;24946;-60
2021/08/15 14:03:01;;;;;;;7.35;4.20;;;;;;;27.97;39.15;100922.42;1618888;87;21183;-62
2021/08/15 14:13:16;;;;;;;11.22;4.95;;;;;;;27.92;39.94;100912.38;1648262;85;21107;-63
2021/08/15 14:15:45;;;;;;;9.95;4.75;;;;;;;27.93;40.05;100909.98;1656000;85;21517;-62
2021/08/15 14:18:46;;;;;;;15.08;5.33;;;;;;;27.98;40.15;100908.11;1621789;86;21123;-64
2021/08/15 14:21:10;;;;;;;8.38;4.90;;;;;;;28.02;40.20;100906.75;1645059;86;21055;-63
2021/08/15 14:23:36;;;;;;;10.88;4.87;;;;;;;28.07;39.94;100909.86;1621237;86;21073;-63
2021/08/15 14:26:06;;;;;;;12.55;5.08;;;;;;;28.11;39.80;100911.29;1617783;86;21152;-63
2021/08/15 14:28:33;;;;;;;7.50;4.92;;;;;;;28.16;39.83;100910.80;1648238;85;21089;-65
2021/08/15 14:31:17;;;;;;;12.18;5.08;;;;;;;28.16;39.75;100902.53;1650916;85;21125;-62
2021/08/15 14:36:17;;;;;;;6.10;4.47;;;;;;;28.16;39.86;100903.91;1646754;86;21135;-61
2021/08/15 14:50:05;;;;;;;13.43;5.17;;;;;;;28.21;40.48;100889.14;1648956;85;21123;-61
2021/08/15 14:52:34;;;;;;;11.73;5.60;;;;;;;28.22;40.58;100885.35;1630036;86;21481;-62
2021/08/15 14:57:46;;;;;;;6.67;4.33;;;;;;;28.22;40.77;100884.47;1621316;86;21840;-62
2021/08/15 15:03:07;;;;;;;10.30;4.95;;;;;;;28.25;40.62;100881.37;1648660;85;21359;-63
2021/08/15 15:08:05;;;;;;;12.60;5.65;;;;;;;28.28;41.19;100865.88;1619379;86;21104;-63
2021/08/15 15:16:05;;;;;;;10.55;5.00;;;;;;;28.30;41.46;100865.22;1646300;86;21122;-64
2021/08/15 15:21:26;;;;;;;11.22;5.28;;;;;;;28.39;41.60;100868.84;1647984;86;21083;-61
2021/08/15 15:23:53;;;;;;;11.38;5.28;;;;;;;28.42;41.33;100865.77;1650898;85;21087;-62
2021/08/15 15:26:20;;;;;;;11.48;4.90;;;;;;;28.44;41.19;100869.22;1646633;85;21111;-62
2021/08/15 15:28:47;;;;;;;10.68;5.45;;;;;;;28.47;40.58;100866.62;1646842;85;21037;-63
2021/08/15 15:31:23;;;;;;;10.08;5.10;;;;;;;28.47;40.14;100857.84;1645606;86;20996;-62
2021/08/15 15:33:59;;;;;;;8.93;4.70;;;;;;;28.47;39.91;100866.12;1629343;86;21141;-62
2021/08/15 15:36:26;;;;;;;10.72;4.75;;;;;;;28.47;39.86;100866.12;1647896;85;21698;-63
2021/08/15 15:41:44;;;;;;;11.10;4.85;;;;;;;28.49;39.69;100861.30;1636760;85;21329;-63
2021/08/15 15:44:11;;;;;;;6.58;4.42;;;;;;;28.49;39.68;100864.05;1636302;85;21084;-62
2021/08/15 15:49:32;;;;;;;10.55;5.17;;;;;;;28.56;39.77;100867.00;1638679;85;21185;-61
2021/08/15 15:52:00;;;;;;;6.83;4.83;;;;;;;28.58;39.43;100874.05;1637617;86;21131;-64
2021/08/15 15:56:59;;;;;;;7.60;4.92;;;;;;;28.51;39.30;100867.50;1638562;85;21036;-63
2021/08/15 16:05:14;;;;;;;8.40;5.00;;;;;;;28.40;39.59;100870.56;1645856;86;21304;-61
2021/08/15 16:10:28;;;;;;;10.45;5.20;;;;;;;28.30;39.60;100870.20;1648059;85;21663;-63
2021/08/15 16:18:55;;;;;;;10.35;4.87;;;;;;;28.21;39.99;100876.73;1655616;85;21095;-62
2021/08/15 16:21:22;;;;;;;21.37;5.10;;;;;;;28.19;40.00;100876.55;1646733;85;21086;-62
2021/08/15 16:23:58;;;;;;;11.73;5.20;;;;;;;28.14;40.22;100877.00;1627370;86;21163;-62
2021/08/15 16:26:27;;;;;;;11.03;4.60;;;;;;;28.08;40.54;100877.67;1616037;87;21108;-63
2021/08/15 16:28:56;;;;;;;7.62;4.90;;;;;;;28.10;40.77;100882.50;1621883;85;21119;-62
2021/08/15 16:31:39;;;;;;;10.20;4.45;;;;;;;28.07;40.93;100884.22;1647439;85;21071;-62
2021/08/15 16:34:06;;;;;;;12.45;4.00;;;;;;;27.99;41.27;100881.79;1647575;85;21118;-62
2021/08/15 16:36:51;;;;;;;8.65;4.12;;;;;;;27.90;41.79;100884.14;1642099;85;21555;-63
2021/08/15 16:39:18;;;;;;;5.97;4.22;;;;;;;27.77;42.33;100880.45;1618697;87;21637;-62
2021/08/15 16:41:53;;;;;;;18.27;4.08;;;;;;;27.62;42.95;100882.96;1643825;85;21496;-62
2021/08/15 16:47:38;;;;;;;7.87;4.35;;;;;;;27.44;43.52;100887.13;1621527;87;21012;-63
2021/08/15 16:50:20;;;;;;;11.10;3.75;;;;;;;27.35;43.66;100879.33;1628510;87;21063;-62
2021/08/15 17:00:54;;;;;;;9.23;3.87;;;;;;;27.09;44.99;100886.17;1653404;85;21155;-63
2021/08/15 17:03:21;;;;;;;12.55;4.20;;;;;;;26.99;45.30;100884.87;1622638;86;21668;-63
2021/08/15 17:05:48;;;;;;;15.40;3.75;;;;;;;26.87;45.69;100885.14;1612151;86;21098;-63
2021/08/15 17:08:20;;;;;;;13.85;4.17;;;;;;;26.79;45.97;100891.88;1627832;86;21525;-63
2021/08/15 17:13:22;;;;;;;8.90;4.22;;;;;;;26.67;46.28;100889.88;1608456;87;21134;-63
2021/08/15 17:15:50;;;;;;;11.05;4.50;;;;;;;26.58;46.35;100895.80;1609842;87;21122;-63
2021/08/15 17:18:19;;;;;;;6.90;3.80;;;;;;;26.48;46.54;100893.64;1610270;87;21170;-63
2021/08/15 17:20:47;;;;;;;12.88;4.15;;;;;;;26.43;46.71;100889.13;1657845;84;21136;-63
2021/08/15 17:23:14;;;;;;;7.42;4.58;;;;;;;26.41;46.81;100896.14;1635121;85;21254;-64
2021/08/15 17:26:08;;;;;;;8.68;4.65;;;;;;;26.41;46.76;100899.38;1612553;87;21499;-63
2021/08/15 17:31:20;;;;;;;12.20;4.78;;;;;;;26.22;47.23;100908.62;1659412;84;21066;-64
2021/08/15 17:33:47;;;;;;;10.23;5.20;;;;;;;26.10;47.55;100909.30;1636876;86;21206;-63
2021/08/15 17:39:01;;;;;;;14.73;6.62;;;;;;;25.98;48.03;100911.37;1605104;87;21183;-63
2021/08/15 17:43:57;;;;;;;14.47;6.05;;;;;;;25.83;48.51;100920.63;1619768;87;21072;-63
2021/08/15 17:46:25;;;;;;;14.23;4.97;;;;;;;25.78;48.59;100922.44;1609329;87;22191;-63
2021/08/15 17:48:51;;;;;;;14.63;4.92;;;;;;;25.72;48.70;100928.00;1611120;87;21031;-63
2021/08/15 17:51:18;;;;;;;12.18;4.95;;;;;;;25.67;48.90;100923.48;1610220;87;21543;-62
2021/08/15 17:53:46;;;;;;;11.38;4.60;;;;;;;25.66;48.52;100923.64;1594648;88;21089;-62
2021/08/15 17:56:14;;;;;;;12.90;4.47;;;;;;;25.59;48.29;100930.23;1590120;89;21087;-63
2021/08/15 17:58:41;;;;;;;9.60;4.50;;;;;;;25.53;48.41;100928.94;1594197;88;21596;-64
2021/08/15 18:01:22;;;;;;;16.67;4.40;;;;;;;25.50;48.34;100931.09;1608956;87;21114;-64
2021/08/15 18:03:49;;;;;;;10.60;4.10;;;;;;;25.43;48.37;100937.15;1611675;88;22328;-62
2021/08/15 18:06:30;;;;;;;13.53;4.40;;;;;;;25.41;48.33;100946.53;1634111;84;21147;-62
2021/08/15 18:09:07;;;;;;;11.22;4.42;;;;;;;25.38;48.13;100943.59;1642734;85;21097;-64
2021/08/15 18:14:40;;;;;;;9.48;4.12;;;;;;;25.24;47.98;100943.54;1646185;85;21517;-63
2021/08/15 18:22:18;;;;;;;15.80;5.28;;;;;;;24.96;48.26;100943.89;1623582;87;21081;-64
2021/08/15 18:24:46;;;;;;;9.40;5.40;;;;;;;24.91;48.45;100944.84;1644335;85;21600;-63